Time;durP1;ratioP1;P1;durP2;ratioP2;P2;SDS_P1;SDS_P2;PMS_P1;PMS_P2;Temp;Humidity;BMP_temperature;BMP_pressure;BME280_temperature;BME280_humidity;BME280_pressure;Samples;Min_cycle;Max_cycle;Signal;HPM_P1;HPM_P2
2022/09/12 00:02:21;;;;;;;4.95;3.72;;;;;;;14.22;100.00;100168.53;5569884;32;34707;-66
2022/09/12 00:05:25;;;;;;;5.87;3.83;;;;;;;14.14;100.00;100177.50;5570300;32;34551;-67
2022/09/12 00:08:27;;;;;;;5.90;3.80;;;;;;;14.17;100.00;100181.66;5569728;32;33899;-67
2022/09/12 00:11:30;;;;;;;6.05;3.95;;;;;;;14.11;100.00;100169.91;5569833;32;33909;-67
2022/09/12 00:14:32;;;;;;;4.97;3.75;;;;;;;14.08;100.00;100166.81;5570169;32;34692;-65
2022/09/12 00:17:37;;;;;;;5.12;3.53;;;;;;;14.04;100.00;100171.69;5569879;32;34656;-66
2022/09/12 00:20:45;;;;;;;4.53;3.55;;;;;;;14.06;100.00;100168.84;5570180;32;34568;-66
2022/09/12 00:23:49;;;;;;;5.60;4.28;;;;;;;14.05;100.00;100167.19;5569679;32;34448;-64
2022/09/12 00:26:52;;;;;;;3.83;3.53;;;;;;;14.02;100.00;100180.94;5569651;32;34011;-66
2022/09/12 00:29:55;;;;;;;5.43;3.80;;;;;;;14.03;100.00;100175.41;5569597;32;34087;-66
2022/09/12 00:32:57;;;;;;;4.82;4.10;;;;;;;13.98;100.00;100169.00;5569657;32;34000;-64
2022/09/12 00:36:04;;;;;;;4.95;4.10;;;;;;;13.98;100.00;100172.50;5569958;32;33894;-65
2022/09/12 00:39:08;;;;;;;4.60;4.10;;;;;;;13.92;100.00;100174.09;5569695;32;33825;-66
2022/09/12 00:42:11;;;;;;;4.68;4.15;;;;;;;13.93;100.00;100177.59;5569502;32;34664;-66
2022/09/12 00:45:25;;;;;;;5.97;3.97;;;;;;;13.90;100.00;100178.78;5555640;32;32586;-67
2022/09/12 00:48:36;;;;;;;5.07;4.15;;;;;;;13.87;100.00;100183.69;5555693;32;33844;-66
2022/09/12 00:52:02;;;;;;;4.57;4.18;;;;;;;13.88;100.00;100180.84;5569330;32;34041;-65
2022/09/12 00:55:19;;;;;;;4.72;4.20;;;;;;;13.82;100.00;100175.44;5569815;32;34206;-66
2022/09/12 00:58:27;;;;;;;4.97;4.28;;;;;;;13.82;100.00;100194.13;5569563;32;33939;-65
2022/09/12 01:01:30;;;;;;;4.85;4.03;;;;;;;13.84;100.00;100184.91;5569224;32;34295;-66
2022/09/12 01:04:37;;;;;;;5.85;3.97;;;;;;;13.82;100.00;100180.78;5545163;32;33263;-66
2022/09/12 01:07:41;;;;;;;4.80;4.10;;;;;;;13.77;100.00;100180.53;5571363;32;33940;-65
2022/09/12 01:10:44;;;;;;;4.68;3.85;;;;;;;13.81;100.00;100168.47;5571312;32;33985;-67
2022/09/12 01:13:49;;;;;;;6.35;3.90;;;;;;;13.80;100.00;100169.47;5571420;32;34665;-67
2022/09/12 01:16:52;;;;;;;5.43;4.22;;;;;;;13.79;100.00;100170.50;5571422;32;35192;-64
2022/09/12 01:20:16;;;;;;;5.62;4.18;;;;;;;13.80;100.00;100170.31;5571377;32;34026;-66
2022/09/12 01:23:44;;;;;;;6.65;4.53;;;;;;;13.76;100.00;100158.38;5571451;32;34355;-66
2022/09/12 01:27:15;;;;;;;5.20;4.60;;;;;;;13.69;100.00;100156.69;5571203;32;34900;-66
2022/09/12 01:30:26;;;;;;;;;;;;;;;13.73;100.00;100165.94;5571614;32;34376;-66
2022/09/12 01:33:50;;;;;;;6.72;4.47;;;;;;;13.71;100.00;100157.31;5571252;32;34267;-66
2022/09/12 01:37:18;;;;;;;4.93;4.32;;;;;;;13.69;100.00;100148.69;5571241;32;33888;-66
2022/09/12 01:40:24;;;;;;;6.20;4.30;;;;;;;13.75;100.00;100175.38;5571138;32;33929;-67
2022/09/12 01:43:36;;;;;;;5.87;4.50;;;;;;;13.72;100.00;100165.13;5571481;32;34588;-66
2022/09/12 01:47:02;;;;;;;11.55;4.47;;;;;;;13.69;100.00;100172.69;5557068;32;34007;-68
2022/09/12 01:50:17;;;;;;;6.32;4.80;;;;;;;13.66;100.00;100173.06;5571123;32;33899;-67
2022/09/12 01:53:26;;;;;;;5.65;4.62;;;;;;;13.61;100.00;100178.12;5571080;32;33928;-66
2022/09/12 01:56:34;;;;;;;6.72;4.75;;;;;;;13.66;100.00;100175.72;5571186;32;34036;-65
2022/09/12 01:59:46;;;;;;;4.70;4.20;;;;;;;13.61;100.00;100178.12;5570967;32;33351;-66
2022/09/12 02:02:56;;;;;;;6.53;4.72;;;;;;;13.53;100.00;100176.44;5571084;32;34120;-66
2022/09/12 02:06:05;;;;;;;4.90;4.40;;;;;;;13.49;100.00;100167.19;5570903;31;34618;-66
2022/09/12 02:09:17;;;;;;;7.22;4.18;;;;;;;13.39;100.00;100175.50;5550821;32;34446;-66
2022/09/12 02:12:26;;;;;;;4.80;4.30;;;;;;;13.40;100.00;100168.34;5551683;32;33951;-66
2022/09/12 02:15:37;;;;;;;4.68;4.15;;;;;;;13.44;100.00;100165.09;5551443;32;34666;-66
2022/09/12 02:18:45;;;;;;;6.03;4.32;;;;;;;13.53;100.00;100168.44;5551414;32;33846;-67
2022/09/12 02:21:54;;;;;;;6.22;4.05;;;;;;;13.51;100.00;100165.13;5551392;32;34577;-66
2022/09/12 02:24:59;;;;;;;4.45;4.05;;;;;;;13.51;100.00;100167.00;5551433;32;35167;-67
2022/09/12 02:28:26;;;;;;;6.78;4.18;;;;;;;13.49;100.00;100162.69;5550623;32;33340;-66
2022/09/12 02:31:36;;;;;;;4.60;4.20;;;;;;;13.51;100.00;100162.47;5551105;32;34090;-67
2022/09/12 02:35:02;;;;;;;7.13;4.93;;;;;;;13.59;100.00;100169.53;5551469;32;34694;-65
2022/09/12 02:38:28;;;;;;;7.15;5.57;;;;;;;13.65;100.00;100169.56;5551471;32;33958;-66
2022/09/12 02:41:30;;;;;;;6.43;5.32;;;;;;;13.51;100.00;100175.78;5539906;32;32280;-64
2022/09/12 02:44:35;;;;;;;6.05;5.45;;;;;;;13.49;100.00;100188.50;5551159;32;33968;-67
2022/09/12 02:47:52;;;;;;;6.50;5.70;;;;;;;13.48;100.00;100182.34;5551100;32;34012;-66
2022/09/12 02:50:56;;;;;;;7.15;5.70;;;;;;;13.45;100.00;100185.41;5550330;32;33970;-67
2022/09/12 02:53:59;;;;;;;6.87;6.00;;;;;;;13.41;100.00;100189.44;5550370;32;35322;-66
2022/09/12 02:57:02;;;;;;;9.40;6.32;;;;;;;13.35;100.00;100192.91;5551107;32;34004;-66
2022/09/12 03:00:06;;;;;;;8.45;6.43;;;;;;;13.35;100.00;100194.72;5551051;32;33960;-67
2022/09/12 03:03:21;;;;;;;10.95;7.07;;;;;;;13.34;100.00;100193.91;5550321;32;33289;-67
2022/09/12 03:06:39;;;;;;;9.57;6.60;;;;;;;13.32;100.00;100187.91;5550957;32;34106;-67
2022/09/12 03:10:50;;;;;;;10.13;7.35;;;;;;;13.22;100.00;100186.56;5537161;32;33241;-68
2022/09/12 03:13:52;;;;;;;9.02;7.00;;;;;;;13.25;100.00;100187.06;5441152;32;32550;-67
2022/09/12 03:17:03;;;;;;;10.43;7.40;;;;;;;13.20;100.00;100183.31;5453718;32;34226;-67
2022/09/12 03:20:18;;;;;;;7.55;6.70;;;;;;;13.18;100.00;100186.16;5453642;32;34045;-67
2022/09/12 03:23:39;;;;;;;7.05;6.32;;;;;;;13.29;100.00;100193.66;5453626;32;34155;-67
2022/09/12 03:26:47;;;;;;;;;;;;;;;13.27;100.00;100193.00;5453306;32;33945;-66
2022/09/12 03:29:50;;;;;;;7.87;6.32;;;;;;;13.23;100.00;100189.06;5453668;32;34255;-67
2022/09/12 03:32:54;;;;;;;8.85;6.18;;;;;;;13.32;100.00;100192.44;5440641;32;33632;-66
2022/09/12 03:35:57;;;;;;;10.30;6.07;;;;;;;13.33;100.00;100200.25;5453369;32;34760;-67
2022/09/12 03:39:00;;;;;;;7.82;6.10;;;;;;;13.26;100.00;100194.03;5453424;32;34627;-67
2022/09/12 03:42:02;;;;;;;7.50;5.78;;;;;;;13.20;100.00;100193.94;5453295;32;33946;-67
2022/09/12 03:45:06;;;;;;;9.02;5.78;;;;;;;13.22;100.00;100194.56;5523884;32;34599;-67
2022/09/12 03:48:09;;;;;;;10.82;5.87;;;;;;;13.24;100.00;100193.37;5550929;32;35113;-67
2022/09/12 03:51:11;;;;;;;5.30;4.65;;;;;;;13.26;100.00;100195.88;5550811;32;33949;-68
2022/09/12 03:54:14;;;;;;;7.07;5.20;;;;;;;13.26;100.00;100191.38;5550601;32;34553;-67
2022/09/12 03:57:17;;;;;;;7.00;5.03;;;;;;;13.30;100.00;100192.63;5550536;32;34124;-68
2022/09/12 04:00:21;;;;;;;6.03;5.00;;;;;;;13.43;100.00;100194.59;5550035;32;34601;-68
2022/09/12 04:03:24;;;;;;;6.40;5.28;;;;;;;13.39;100.00;100191.50;5549860;32;34277;-66
2022/09/12 04:06:26;;;;;;;7.95;5.43;;;;;;;13.35;100.00;100192.06;5545685;32;144941;-68
2022/09/12 04:09:29;;;;;;;7.12;5.37;;;;;;;13.36;100.00;100185.72;5560393;32;33996;-68
2022/09/12 04:12:32;;;;;;;7.70;5.70;;;;;;;13.28;100.00;100202.66;5556091;32;33955;-68
2022/09/12 04:15:34;;;;;;;7.40;5.97;;;;;;;13.26;100.00;100203.88;5569645;32;34670;-67
2022/09/12 04:18:37;;;;;;;7.87;5.60;;;;;;;13.17;100.00;100207.66;5569810;32;33974;-67
2022/09/12 04:21:40;;;;;;;7.12;5.97;;;;;;;13.14;100.00;100197.38;5556116;32;35296;-67
2022/09/12 04:24:43;;;;;;;7.40;5.70;;;;;;;13.10;100.00;100204.88;5569841;32;34065;-67
2022/09/12 04:27:45;;;;;;;7.32;6.05;;;;;;;13.09;100.00;100203.22;5569540;32;34081;-67
2022/09/12 04:30:48;;;;;;;9.23;5.95;;;;;;;13.03;100.00;100202.13;5569452;32;34178;-66
2022/09/12 04:33:56;;;;;;;6.82;5.75;;;;;;;13.04;100.00;100206.47;5555621;32;32668;-68
2022/09/12 04:36:59;;;;;;;7.15;5.60;;;;;;;13.15;100.00;100207.84;5569261;32;34785;-68
2022/09/12 04:40:02;;;;;;;7.53;5.45;;;;;;;13.19;100.00;100211.78;5569800;32;34040;-67
2022/09/12 04:43:05;;;;;;;7.50;5.25;;;;;;;13.17;100.00;100202.34;5569636;32;34000;-68
2022/09/12 04:46:15;;;;;;;10.43;6.28;;;;;;;13.22;100.00;100206.06;5569505;32;34080;-67
2022/09/12 04:49:18;;;;;;;6.55;5.47;;;;;;;13.25;100.00;100205.69;5569273;32;34707;-68
2022/09/12 04:52:21;;;;;;;10.85;5.90;;;;;;;13.28;100.00;100205.31;5569228;32;33924;-67
2022/09/12 04:55:24;;;;;;;9.27;5.55;;;;;;;13.28;100.00;100201.81;5569163;32;33947;-66
2022/09/12 04:58:26;;;;;;;6.55;5.57;;;;;;;13.31;100.00;100214.78;5569070;32;34168;-65
2022/09/12 05:01:29;;;;;;;6.07;5.10;;;;;;;13.33;100.00;100216.22;5569148;32;34571;-67
2022/09/12 05:04:32;;;;;;;7.97;5.45;;;;;;;13.30;100.00;100210.47;5569120;32;33901;-66
2022/09/12 05:07:35;;;;;;;7.82;5.45;;;;;;;13.37;100.00;100214.00;5555180;32;33103;-67
2022/09/12 05:10:37;;;;;;;8.15;5.75;;;;;;;13.40;100.00;100205.63;5568673;32;34106;-68
2022/09/12 05:13:40;;;;;;;8.80;5.35;;;;;;;13.44;100.00;100209.56;5568678;32;33937;-67
2022/09/12 05:16:43;;;;;;;7.70;5.90;;;;;;;13.49;100.00;100212.50;5568361;32;34578;-66
2022/09/12 05:19:51;;;;;;;8.02;5.65;;;;;;;13.54;100.00;100207.41;5568931;32;34695;-66
2022/09/12 05:22:54;;;;;;;7.70;4.90;;;;;;;13.60;100.00;100213.81;5554632;32;33630;-66
2022/09/12 05:25:58;;;;;;;6.72;5.03;;;;;;;13.67;100.00;100217.34;5554639;32;33123;-67
2022/09/12 05:29:04;;;;;;;5.78;4.30;;;;;;;13.83;100.00;100225.09;5541665;32;33672;-65
2022/09/12 05:32:06;;;;;;;4.80;4.03;;;;;;;13.99;100.00;100235.47;5541570;32;34067;-67
2022/09/12 05:35:10;;;;;;;7.22;4.35;;;;;;;14.21;100.00;100230.94;5554529;32;32386;-66
2022/09/12 05:38:12;;;;;;;5.60;4.70;;;;;;;14.32;100.00;100246.41;5568010;32;33471;-67
2022/09/12 05:41:18;;;;;;;6.82;5.50;;;;;;;14.35;100.00;100257.50;5553961;32;34776;-67
2022/09/12 05:44:27;;;;;;;5.70;4.90;;;;;;;14.34;100.00;100253.19;5553838;32;34464;-67
2022/09/12 05:47:30;;;;;;;6.85;5.40;;;;;;;14.39;100.00;100251.78;5554329;32;34050;-66
2022/09/12 05:50:32;;;;;;;7.70;5.57;;;;;;;14.34;100.00;100250.50;5570637;32;35291;-67
2022/09/12 05:53:37;;;;;;;8.52;5.93;;;;;;;14.35;100.00;100256.69;5570576;32;33882;-67
2022/09/12 05:56:41;;;;;;;10.25;6.50;;;;;;;14.24;100.00;100259.88;5556949;32;33945;-65
2022/09/12 05:59:44;;;;;;;8.80;5.97;;;;;;;14.29;100.00;100257.44;5556846;32;33220;-66
2022/09/12 06:02:52;;;;;;;9.95;5.80;;;;;;;14.44;100.00;100254.72;5570373;32;34122;-67
2022/09/12 06:05:54;;;;;;;9.95;6.28;;;;;;;14.39;100.00;100254.47;5570570;32;33964;-65
2022/09/12 06:08:59;;;;;;;8.63;5.80;;;;;;;14.51;100.00;100250.25;5556475;32;34177;-66
2022/09/12 06:12:02;;;;;;;10.32;6.30;;;;;;;14.42;100.00;100249.59;5570043;32;34579;-66
2022/09/12 06:15:06;;;;;;;8.98;6.00;;;;;;;14.50;100.00;100264.59;5556214;32;32582;-67
2022/09/12 06:18:09;;;;;;;9.65;6.10;;;;;;;14.53;100.00;100257.03;5570499;32;33968;-67
2022/09/12 06:21:13;;;;;;;7.82;5.53;;;;;;;14.64;100.00;100266.34;5556801;32;33224;-67
2022/09/12 06:24:17;;;;;;;10.30;5.93;;;;;;;14.74;100.00;100264.97;5556273;32;32541;-66
2022/09/12 06:27:19;;;;;;;9.23;6.40;;;;;;;15.06;100.00;100265.31;5555636;32;32949;-66
2022/09/12 06:30:22;;;;;;;8.07;5.50;;;;;;;15.28;98.30;100260.66;5570292;32;34490;-69
2022/09/12 06:33:27;;;;;;;7.18;5.80;;;;;;;15.76;94.99;100262.25;5570182;32;34060;-68
2022/09/12 06:36:44;;;;;;;8.20;6.05;;;;;;;15.63;95.43;100268.41;5556150;32;33479;-66
2022/09/12 06:39:47;;;;;;;7.45;5.55;;;;;;;15.87;94.93;100268.84;5556819;32;33279;-66
2022/09/12 06:42:50;;;;;;;9.95;5.60;;;;;;;16.51;90.37;100277.03;5570301;32;33948;-68
2022/09/12 06:46:01;;;;;;;7.22;5.37;;;;;;;16.48;88.81;100272.09;5570144;32;34324;-67
2022/09/12 06:49:04;;;;;;;7.72;5.12;;;;;;;16.88;86.65;100278.22;5556445;32;34307;-67
2022/09/12 06:52:06;;;;;;;6.78;4.70;;;;;;;17.17;85.48;100276.88;5556468;32;33368;-67
2022/09/12 06:55:09;;;;;;;7.72;5.18;;;;;;;17.09;84.59;100269.09;5543422;32;32606;-67
2022/09/12 06:58:12;;;;;;;7.18;4.97;;;;;;;17.57;81.81;100278.28;5543678;32;32576;-68
2022/09/12 07:01:22;;;;;;;7.25;4.82;;;;;;;16.86;84.30;100275.75;5555224;32;34125;-67
2022/09/12 07:04:25;;;;;;;7.00;5.15;;;;;;;16.64;85.58;100278.91;5570117;32;33920;-67
2022/09/12 07:07:27;;;;;;;7.68;5.43;;;;;;;16.71;85.77;100264.44;5570231;32;34015;-66
2022/09/12 07:10:31;;;;;;;11.75;5.40;;;;;;;17.84;80.48;100270.13;5570081;32;34112;-68
2022/09/12 07:13:34;;;;;;;8.45;4.70;;;;;;;17.73;80.30;100275.13;5569997;32;34787;-64
2022/09/12 07:16:36;;;;;;;7.15;5.15;;;;;;;18.48;76.71;100285.91;5556046;32;34552;-67
2022/09/12 07:19:40;;;;;;;6.65;4.57;;;;;;;18.56;76.08;100283.78;5569185;32;34518;-67
2022/09/12 07:22:42;;;;;;;5.95;4.30;;;;;;;18.39;75.58;100281.84;5570146;32;34856;-67
2022/09/12 07:25:56;;;;;;;7.78;4.43;;;;;;;18.15;76.54;100283.50;5569982;32;34030;-67
2022/09/12 07:28:58;;;;;;;8.48;4.00;;;;;;;19.07;72.25;100282.59;5556196;32;32908;-68
2022/09/12 07:32:22;;;;;;;6.78;3.67;;;;;;;19.29;70.25;100286.44;5569928;32;33956;-67
2022/09/12 07:35:25;;;;;;;4.35;2.83;;;;;;;19.53;69.53;100288.22;5556014;32;34080;-68
2022/09/12 07:38:28;;;;;;;7.10;4.28;;;;;;;19.12;69.78;100293.50;5556224;32;33017;-68
2022/09/12 07:41:35;;;;;;;7.25;4.00;;;;;;;17.54;77.51;100288.63;5569848;32;34142;-66
2022/09/12 07:44:37;;;;;;;5.47;3.97;;;;;;;18.59;73.84;100296.75;5569801;32;34742;-68
2022/09/12 07:47:40;;;;;;;7.80;4.00;;;;;;;17.58;78.39;100297.91;5569663;32;34603;-67
2022/09/12 07:50:43;;;;;;;7.32;4.12;;;;;;;18.24;74.89;100298.31;5569575;32;34014;-66
2022/09/12 07:53:48;;;;;;;6.40;3.95;;;;;;;17.56;78.20;100297.31;5556314;32;34047;-66
2022/09/12 07:56:51;;;;;;;7.62;4.15;;;;;;;19.06;73.33;100295.22;5555841;32;33265;-68
2022/09/12 07:59:53;;;;;;;5.68;3.70;;;;;;;19.64;68.75;100304.63;5569334;32;34085;-66
2022/09/12 08:02:56;;;;;;;4.40;3.30;;;;;;;19.96;66.78;100292.56;5569103;32;33924;-69
2022/09/12 08:06:11;;;;;;;4.53;3.30;;;;;;;20.20;64.91;100290.72;5569448;31;34045;-68
2022/09/12 08:09:16;;;;;;;4.40;3.47;;;;;;;20.27;64.33;100292.25;5569481;32;34671;-68
2022/09/12 08:12:19;;;;;;;4.95;3.30;;;;;;;21.03;61.26;100290.47;5555229;32;33972;-68
2022/09/12 08:15:21;;;;;;;4.93;3.20;;;;;;;20.98;61.20;100299.28;5569420;32;33980;-67
2022/09/12 08:18:29;;;;;;;4.47;3.25;;;;;;;21.54;59.99;100303.94;5555121;32;32524;-68
2022/09/12 08:21:32;;;;;;;4.65;3.05;;;;;;;21.36;60.17;100295.22;5555714;32;34168;-68
2022/09/12 08:24:36;;;;;;;6.65;3.50;;;;;;;21.11;60.73;100298.19;5569538;32;34675;-66
2022/09/12 08:27:38;;;;;;;3.92;3.22;;;;;;;20.72;61.74;100295.19;5569376;32;33989;-67
2022/09/12 08:30:41;;;;;;;4.00;3.42;;;;;;;21.75;59.28;100294.34;5568882;32;33963;-67
2022/09/12 08:33:44;;;;;;;7.12;3.05;;;;;;;22.72;55.63;100294.87;5569101;32;34584;-67
2022/09/12 08:36:47;;;;;;;7.37;2.97;;;;;;;22.59;56.11;100289.78;5556282;32;32771;-67
2022/09/12 08:39:51;;;;;;;5.65;2.62;;;;;;;23.40;53.65;100285.44;5556369;32;33799;-67
2022/09/12 08:43:24;;;;;;;7.35;2.60;;;;;;;23.48;52.41;100287.72;5555431;32;33439;-67
2022/09/12 08:46:49;;;;;;;5.90;2.40;;;;;;;23.92;50.89;100280.28;5554956;32;33511;-67
2022/09/12 08:50:04;;;;;;;4.10;2.15;;;;;;;23.74;49.89;100278.78;5568364;32;34609;-67
2022/09/12 08:53:20;;;;;;;2.85;2.37;;;;;;;24.55;48.37;100286.75;5555018;32;33742;-67
2022/09/12 08:56:26;;;;;;;3.28;2.20;;;;;;;22.72;52.17;100288.63;5555061;32;32706;-68
2022/09/12 08:59:39;;;;;;;4.72;2.20;;;;;;;20.80;58.39;100278.69;5555565;32;34217;-67
2022/09/12 09:02:58;;;;;;;20.70;3.08;;;;;;;20.53;59.91;100280.22;5554878;32;34412;-65
2022/09/12 09:06:22;;;;;;;3.97;2.25;;;;;;;20.35;60.25;100269.56;5554830;32;32373;-67
2022/09/12 09:09:57;;;;;;;3.47;2.42;;;;;;;19.78;61.80;100273.78;5568662;32;34582;-66
2022/09/12 09:14:46;;;;;;;5.35;2.00;;;;;;;19.76;62.57;100271.31;5554894;32;33701;-68
2022/09/12 09:16:40;;;;;;;7.78;3.28;;;;;;;19.24;63.51;100270.16;5554745;32;33731;-68
2022/09/12 09:19:48;;;;;;;3.58;2.17;;;;;;;19.35;62.82;100263.19;5554946;32;33265;-67
2022/09/12 09:23:14;;;;;;;;;;;;;;;19.22;63.20;100266.06;5569385;32;34024;-67
2022/09/12 09:26:31;;;;;;;3.33;2.47;;;;;;;19.44;63.39;100264.56;5557000;32;32979;-67
2022/09/12 09:29:40;;;;;;;10.35;2.60;;;;;;;19.58;63.66;100257.09;5571123;32;33969;-66
2022/09/12 09:32:49;;;;;;;3.92;2.15;;;;;;;19.63;63.33;100271.53;5571196;32;33874;-67
2022/09/12 09:36:13;;;;;;;5.90;2.40;;;;;;;19.51;63.73;100273.34;5570811;32;34632;-68
2022/09/12 09:39:27;;;;;;;2.83;1.75;;;;;;;19.74;61.84;100259.97;5556766;32;34847;-65
2022/09/12 09:43:03;;;;;;;3.15;1.80;;;;;;;20.10;59.79;100264.34;5570524;32;34790;-67
2022/09/12 09:46:06;;;;;;;1.77;1.65;;;;;;;20.11;59.47;100270.56;5570474;32;34027;-69
2022/09/12 09:49:13;;;;;;;4.12;2.20;;;;;;;19.81;60.89;100266.06;5544417;32;34026;-69
2022/09/12 09:52:28;;;;;;;3.95;2.12;;;;;;;20.22;58.97;100264.37;5557167;32;33998;-66
2022/09/12 09:55:41;;;;;;;4.25;1.60;;;;;;;20.83;58.74;100272.81;5532048;32;33727;-67
2022/09/12 09:58:43;;;;;;;3.45;1.65;;;;;;;20.82;55.17;100273.03;5571079;32;34100;-70
2022/09/12 10:01:53;;;;;;;8.95;2.08;;;;;;;20.56;55.24;100268.97;5544052;32;33366;-69
2022/09/12 10:04:58;;;;;;;4.62;1.80;;;;;;;20.32;58.00;100260.09;5557548;32;33846;-69
2022/09/12 10:08:03;;;;;;;2.30;2.05;;;;;;;20.22;58.84;100267.91;5556947;32;33601;-70
2022/09/12 10:11:18;;;;;;;2.17;1.77;;;;;;;19.91;59.46;100260.13;5570567;32;33959;-68
2022/09/12 10:14:27;;;;;;;2.85;1.85;;;;;;;20.14;57.80;100257.44;5570521;32;35163;-68
2022/09/12 10:17:43;;;;;;;1.90;1.73;;;;;;;20.09;58.24;100260.00;5570316;32;34282;-66
2022/09/12 10:20:45;;;;;;;2.67;1.60;;;;;;;19.97;58.02;100259.19;5570584;32;34930;-69
2022/09/12 10:23:58;;;;;;;2.58;1.73;;;;;;;19.68;58.02;100252.81;5557102;32;34026;-66
2022/09/12 10:27:19;;;;;;;2.40;1.77;;;;;;;19.28;59.27;100268.66;5557504;32;34333;-64
2022/09/12 10:30:26;;;;;;;2.58;1.40;;;;;;;19.13;57.94;100265.53;5570781;32;34189;-67
2022/09/12 10:33:36;;;;;;;1.98;1.67;;;;;;;19.31;58.68;100270.91;5556933;32;33920;-66
2022/09/12 10:36:39;;;;;;;2.53;1.77;;;;;;;19.81;57.26;100268.75;5570230;32;34046;-67
2022/09/12 10:39:52;;;;;;;3.00;1.70;;;;;;;19.70;57.82;100266.06;5570344;32;34411;-68
2022/09/12 10:42:59;;;;;;;2.55;1.73;;;;;;;19.85;57.49;100258.34;5570627;32;35309;-68
2022/09/12 10:46:14;;;;;;;2.72;1.70;;;;;;;20.15;57.27;100260.97;5556966;32;33858;-69
2022/09/12 10:49:24;;;;;;;5.95;1.60;;;;;;;20.22;57.56;100267.06;5556759;32;33992;-67
2022/09/12 10:52:27;;;;;;;6.15;1.90;;;;;;;20.77;56.62;100260.25;5570461;32;34483;-67
2022/09/12 10:55:33;;;;;;;2.10;1.50;;;;;;;20.51;56.75;100260.78;5570274;32;33839;-68
2022/09/12 10:58:52;;;;;;;3.05;1.65;;;;;;;21.00;55.15;100255.91;5570223;32;34532;-68
2022/09/12 11:02:28;;;;;;;2.70;1.60;;;;;;;22.01;52.89;100249.72;5556719;32;33916;-67
2022/09/12 11:05:44;;;;;;;2.40;1.60;;;;;;;21.60;53.73;100245.47;5570340;32;33932;-67
2022/09/12 11:09:14;;;;;;;4.68;1.80;;;;;;;20.99;54.52;100249.69;5569976;31;33974;-68
2022/09/12 11:12:42;;;;;;;2.25;1.50;;;;;;;21.44;52.67;100248.97;5570274;32;34299;-67
2022/09/12 11:16:05;;;;;;;4.47;1.65;;;;;;;21.40;52.76;100250.47;5556195;32;32680;-68
2022/09/12 11:19:24;;;;;;;4.40;1.73;;;;;;;21.52;53.16;100238.59;5570288;32;33964;-67
2022/09/12 11:22:39;;;;;;;6.10;1.98;;;;;;;21.33;52.77;100237.16;5570015;32;34002;-67
2022/09/12 11:26:17;;;;;;;2.72;1.48;;;;;;;23.33;48.14;100245.00;5556311;32;34151;-66
2022/09/12 11:29:51;;;;;;;2.03;1.27;;;;;;;26.63;38.77;100231.75;5570070;32;34322;-67
2022/09/12 11:33:01;;;;;;;12.32;1.30;;;;;;;28.21;36.41;100235.22;5569537;32;35262;-67
2022/09/12 11:36:12;;;;;;;3.85;1.10;;;;;;;28.69;34.73;100235.25;5570040;32;34813;-67
2022/09/12 11:39:20;;;;;;;2.10;1.02;;;;;;;29.04;33.77;100242.22;5556335;32;34078;-68
2022/09/12 11:42:34;;;;;;;4.18;0.95;;;;;;;28.16;34.92;100239.91;5543933;32;34628;-68
2022/09/12 11:45:43;;;;;;;3.25;1.25;;;;;;;24.17;42.48;100229.03;5555440;32;33800;-66
2022/09/12 11:48:58;;;;;;;1.33;1.20;;;;;;;22.90;44.37;100232.34;5570449;32;34578;-67
2022/09/12 11:52:09;;;;;;;4.65;1.58;;;;;;;21.35;49.38;100236.91;5570294;32;34115;-66
2022/09/12 11:55:18;;;;;;;4.32;2.00;;;;;;;21.12;51.05;100233.22;5556291;32;32369;-67
2022/09/12 11:58:25;;;;;;;2.53;1.80;;;;;;;20.26;55.07;100225.12;5556017;32;32727;-66
2022/09/12 12:01:36;;;;;;;3.25;1.40;;;;;;;20.20;55.32;100236.84;5570004;32;33842;-65
2022/09/12 12:05:16;;;;;;;2.33;1.65;;;;;;;19.91;56.14;100242.09;5555904;32;33159;-67
2022/09/12 12:08:23;;;;;;;2.58;1.62;;;;;;;19.83;56.66;100234.38;5561613;32;32775;-67
2022/09/12 12:11:38;;;;;;;2.72;1.98;;;;;;;19.89;57.13;100232.63;5556033;32;32486;-67
2022/09/12 12:14:45;;;;;;;2.83;1.77;;;;;;;20.06;56.25;100228.16;5570119;32;34272;-67
2022/09/12 12:18:02;;;;;;;1.77;1.62;;;;;;;20.47;55.90;100226.47;5542891;32;33696;-67
2022/09/12 12:21:41;;;;;;;3.75;1.80;;;;;;;21.69;52.55;100225.91;5556219;32;34001;-68
2022/09/12 12:25:16;;;;;;;2.37;1.62;;;;;;;22.76;49.11;100222.97;5556043;32;34705;-67
2022/09/12 12:28:41;;;;;;;3.15;1.77;;;;;;;22.18;49.87;100218.09;5529535;32;34572;-67
2022/09/12 12:32:00;;;;;;;4.03;1.52;;;;;;;21.40;51.97;100210.00;5555798;32;34630;-67
2022/09/12 12:35:41;;;;;;;3.35;1.70;;;;;;;21.36;51.65;100204.28;5569643;32;34727;-68
2022/09/12 12:38:44;;;;;;;3.33;1.42;;;;;;;22.75;48.59;100210.50;5555910;32;32751;-67
2022/09/12 12:41:46;;;;;;;3.25;1.60;;;;;;;22.81;47.78;100206.81;5543056;32;34064;-67
2022/09/12 12:44:50;;;;;;;3.42;1.30;;;;;;;21.72;49.96;100221.94;5555915;32;33850;-67
2022/09/12 12:47:56;;;;;;;3.12;1.80;;;;;;;21.16;52.21;100212.81;5555742;32;32484;-66
2022/09/12 12:51:27;;;;;;;2.40;1.50;;;;;;;20.92;52.66;100221.19;5569258;32;34160;-65
2022/09/12 12:54:48;;;;;;;2.42;1.25;;;;;;;22.69;48.53;100213.41;5555126;32;32863;-65
2022/09/12 12:57:53;;;;;;;3.45;1.50;;;;;;;26.56;40.35;100217.66;5555398;32;35242;-64
2022/09/12 13:01:08;;;;;;;4.00;1.40;;;;;;;26.43;39.79;100203.81;5568945;32;35253;-67
2022/09/12 13:04:16;;;;;;;1.95;1.20;;;;;;;28.00;35.82;100203.75;5555190;32;33591;-66
2022/09/12 13:07:32;;;;;;;1.80;1.20;;;;;;;24.98;42.03;100215.12;5542456;32;32349;-68
2022/09/12 13:10:36;;;;;;;1.83;1.23;;;;;;;22.69;47.29;100199.87;5555145;32;33069;-68
2022/09/12 13:13:57;;;;;;;4.50;1.30;;;;;;;26.13;40.59;100215.53;5555080;32;34034;-68
2022/09/12 13:17:05;;;;;;;4.80;1.10;;;;;;;26.74;37.42;100221.66;5568629;32;35300;-68
2022/09/12 13:20:27;;;;;;;3.05;1.20;;;;;;;23.87;43.22;100203.59;5554982;32;32842;-66
2022/09/12 13:23:34;;;;;;;3.47;1.20;;;;;;;25.03;41.53;100215.12;5568684;32;34247;-68
2022/09/12 13:26:42;;;;;;;5.18;1.60;;;;;;;28.30;34.86;100208.94;5554928;32;33978;-67
2022/09/12 13:29:46;;;;;;;2.47;1.17;;;;;;;27.27;35.85;100205.63;5568266;32;34615;-66
2022/09/12 13:32:48;;;;;;;3.50;1.42;;;;;;;29.53;32.55;100195.38;5554877;32;33927;-68
2022/09/12 13:36:26;;;;;;;6.40;1.30;;;;;;;31.25;29.54;100201.12;5554260;32;34910;-66
2022/09/12 13:39:37;;;;;;;5.70;1.17;;;;;;;29.87;30.14;100195.09;5568476;32;34226;-67
2022/09/12 13:43:04;;;;;;;4.93;1.30;;;;;;;26.51;36.65;100192.38;5554135;32;33426;-66
2022/09/12 13:46:08;;;;;;;2.05;1.20;;;;;;;24.39;40.84;100188.25;5554273;32;32270;-68
2022/09/12 13:49:34;;;;;;;4.22;1.02;;;;;;;22.37;44.72;100172.69;5554424;32;32808;-68
2022/09/12 13:52:37;;;;;;;1.58;1.00;;;;;;;25.59;37.79;100185.41;5541231;32;32672;-70
2022/09/12 13:55:45;;;;;;;3.53;1.10;;;;;;;27.56;34.29;100182.03;5567803;32;34389;-68
2022/09/12 13:58:56;;;;;;;1.77;1.10;;;;;;;29.06;31.19;100171.72;5567879;32;34264;-68
2022/09/12 14:01:59;;;;;;;1.12;0.82;;;;;;;31.78;27.17;100167.53;5567890;32;34325;-67
2022/09/12 14:05:23;;;;;;;2.50;0.65;;;;;;;30.81;27.01;100174.41;5567288;32;33449;-69
2022/09/12 14:08:25;;;;;;;1.40;0.82;;;;;;;27.47;30.28;100162.72;5567409;32;34177;-66
2022/09/12 14:11:29;;;;;;;1.55;0.85;;;;;;;26.71;31.59;100179.50;5556778;32;33809;-68
2022/09/12 14:14:35;;;;;;;1.60;0.70;;;;;;;24.89;35.21;100162.41;5556618;32;33088;-69
2022/09/12 14:17:41;;;;;;;4.80;0.90;;;;;;;23.59;36.85;100154.06;5569653;32;35018;-66
2022/09/12 14:20:44;;;;;;;2.85;0.90;;;;;;;23.36;37.96;100155.19;5569950;32;33970;-69
2022/09/12 14:23:48;;;;;;;2.55;0.80;;;;;;;23.56;37.95;100148.34;5556863;32;34569;-66
2022/09/12 14:26:55;;;;;;;1.77;0.82;;;;;;;22.22;40.63;100151.66;5556420;32;33284;-67
2022/09/12 14:30:07;;;;;;;2.05;0.77;;;;;;;21.90;40.82;100156.84;5556476;32;32470;-67
2022/09/12 14:33:10;;;;;;;2.80;0.88;;;;;;;21.94;41.80;100158.03;5569916;32;34025;-66
2022/09/12 14:36:51;;;;;;;1.85;0.90;;;;;;;21.87;41.99;100164.66;5570314;32;34148;-65
2022/09/12 14:39:55;;;;;;;5.45;0.90;;;;;;;21.85;41.74;100159.47;5569908;32;34283;-67